Time;durP1;ratioP1;P1;durP2;ratioP2;P2;SDS_P1;SDS_P2;PMS_P1;PMS_P2;Temp;Humidity;BMP_temperature;BMP_pressure;BME280_temperature;BME280_humidity;BME280_pressure;Samples;Min_cycle;Max_cycle;Signal;HPM_P1;HPM_P2
2023/08/02 00:01:21;;;;;;;11.38;2.50;;;15.20;99.90;;;-144.05;82.79;56999.63;6187572;23;20009;-83
2023/08/02 00:03:47;;;;;;;12.48;2.60;;;15.20;99.90;;;-144.05;83.13;56997.50;6187792;23;20373;-84
2023/08/02 00:06:13;;;;;;;9.88;2.80;;;15.30;99.90;;;-144.05;82.79;56986.91;6187047;23;20024;-86
2023/08/02 00:08:39;;;;;;;9.02;2.60;;;15.30;99.90;;;-144.05;83.09;56972.03;6159405;23;20012;-83
2023/08/02 00:11:05;;;;;;;7.97;2.58;;;15.30;99.90;;;-144.05;82.35;56982.66;6186225;23;20008;-85
2023/08/02 00:13:30;;;;;;;6.60;2.67;;;15.30;99.90;;;-144.05;82.26;56974.16;6159818;23;20037;-84
2023/08/02 00:15:56;;;;;;;9.30;2.55;;;15.30;99.90;;;-144.05;82.64;56961.41;6187353;23;20031;-81
2023/08/02 00:18:22;;;;;;;9.93;2.85;;;15.30;99.90;;;-144.05;82.97;56969.91;6186435;23;20012;-85
2023/08/02 00:20:48;;;;;;;11.20;3.03;;;15.30;99.90;;;-144.05;83.20;56995.38;6186849;23;20005;-84
2023/08/02 00:23:15;;;;;;;10.52;2.50;;;15.30;99.90;;;-144.05;83.44;56989.00;6192652;23;20009;-83
2023/08/02 00:25:40;;;;;;;8.90;2.50;;;15.20;99.90;;;-144.05;83.67;56967.78;6189363;23;20399;-84
2023/08/02 00:28:06;;;;;;;9.45;2.22;;;15.20;99.90;;;-144.05;83.19;56989.00;6162453;23;20005;-83
2023/08/02 00:30:42;;;;;;;7.20;2.47;;;15.20;99.90;;;-144.05;83.99;56978.41;6188869;23;20075;-84
2023/08/02 00:33:08;;;;;;;10.63;2.53;;;15.20;99.90;;;-144.05;84.47;56984.78;6186264;23;20559;-82
2023/08/02 00:35:34;;;;;;;9.25;2.20;;;15.10;99.90;;;-144.05;84.37;56952.91;6187432;23;20005;-85
2023/08/02 00:37:59;;;;;;;7.15;2.28;;;15.10;99.90;;;-144.05;84.34;56963.53;6187001;23;20016;-84
2023/08/02 00:40:25;;;;;;;6.60;2.45;;;15.10;99.90;;;-144.05;83.98;56976.28;6160991;23;20016;-85
2023/08/02 00:42:51;;;;;;;7.82;2.45;;;15.20;99.90;;;-144.05;83.97;56974.16;6161135;23;20013;-85
2023/08/02 00:45:17;;;;;;;5.13;2.72;;;15.10;99.90;;;-144.05;83.61;56984.78;6160706;23;20319;-84
2023/08/02 00:47:43;;;;;;;7.22;2.58;;;15.10;99.90;;;-144.05;83.76;56974.16;6160659;23;20093;-85
2023/08/02 00:50:10;;;;;;;5.63;2.17;;;15.10;99.90;;;-144.05;84.16;56974.16;6188079;23;20016;-83
2023/08/02 00:52:36;;;;;;;8.77;2.50;;;15.10;99.90;;;-144.05;84.28;56976.28;6186623;23;20005;-85
2023/08/02 00:55:03;;;;;;;8.45;3.10;;;15.00;99.90;;;-144.05;84.04;56967.78;6186373;23;20031;-84
2023/08/02 00:57:29;;;;;;;7.32;2.95;;;15.00;99.90;;;-144.05;84.41;56976.28;6160844;23;20041;-84
2023/08/02 00:59:55;;;;;;;5.13;2.33;;;15.00;99.90;;;-144.05;84.94;56976.28;6186062;23;20009;-84
2023/08/02 01:02:21;;;;;;;8.32;2.55;;;14.90;99.90;;;-144.05;85.03;56961.41;6159737;23;20012;-84
2023/08/02 01:04:48;;;;;;;7.97;2.20;;;14.90;99.90;;;-144.05;84.67;56978.41;6186120;23;20072;-83
2023/08/02 01:11:37;;;;;;;8.57;2.88;;;14.90;99.90;;;-144.05;84.88;56955.03;6186094;23;20016;-83
2023/08/02 01:14:07;;;;;;;11.95;2.78;;;14.90;99.90;;;-144.05;84.78;56984.78;6144814;23;20021;-84
2023/08/02 01:16:37;;;;;;;6.55;2.20;;;14.90;99.90;;;-144.05;85.05;56982.66;6187455;23;20338;-84
2023/08/02 01:19:10;;;;;;;7.93;2.10;;;14.90;99.90;;;-144.05;85.10;56980.53;6187841;23;20091;-84
2023/08/02 01:21:36;;;;;;;11.18;2.80;;;14.90;99.90;;;-144.05;84.86;56959.28;6187336;23;20009;-84
2023/08/02 01:24:03;;;;;;;5.53;2.05;;;14.90;99.90;;;-144.05;84.54;56974.16;6187083;23;20017;-82
2023/08/02 01:26:34;;;;;;;6.93;2.22;;;14.90;99.90;;;-144.05;84.33;56989.00;6187824;23;20079;-84
2023/08/02 01:29:08;;;;;;;5.47;2.85;;;14.90;99.90;;;-144.05;84.94;56984.78;6160835;23;20005;-82
2023/08/02 01:31:37;;;;;;;9.93;1.95;;;14.90;99.90;;;-144.05;84.96;56989.00;6188208;23;20005;-83
2023/08/02 01:34:05;;;;;;;7.55;2.30;;;14.80;99.90;;;-144.05;84.81;56972.03;6160921;23;20051;-85
2023/08/02 01:36:32;;;;;;;7.10;2.17;;;14.80;99.90;;;-144.05;84.24;56989.00;6187430;23;20005;-86
2023/08/02 01:38:58;;;;;;;9.07;2.92;;;14.80;99.90;;;-144.05;84.33;56984.78;6161051;23;20514;-83
2023/08/02 01:41:24;;;;;;;8.00;2.20;;;14.80;99.90;;;-144.05;84.93;56984.78;6187369;23;20041;-84
2023/08/02 01:43:49;;;;;;;5.25;2.30;;;14.80;99.90;;;-144.05;85.55;56972.03;6187345;23;20056;-85
2023/08/02 01:46:15;;;;;;;9.68;2.58;;;14.70;99.90;;;-144.05;85.41;56984.78;6186967;23;20005;-83
2023/08/02 01:48:41;;;;;;;7.90;2.38;;;14.70;99.90;;;-144.05;86.15;56963.53;6160835;23;20005;-83
2023/08/02 01:51:07;;;;;;;6.22;2.80;;;14.70;99.90;;;-144.05;85.50;56980.53;6160579;23;20489;-83
2023/08/02 01:53:33;;;;;;;8.70;2.20;;;14.70;99.90;;;-144.05;86.04;56991.13;6160707;23;20005;-84
2023/08/02 01:55:58;;;;;;;7.43;2.30;;;14.70;99.90;;;-144.05;85.62;56976.28;6160805;23;20005;-80
2023/08/02 01:58:24;;;;;;;7.75;2.42;;;14.60;99.90;;;-144.05;86.04;56991.13;6160836;23;20008;-83
2023/08/02 02:00:50;;;;;;;10.50;2.70;;;14.60;99.90;;;-144.05;86.70;56993.25;6187402;23;20320;-82
2023/08/02 02:03:16;;;;;;;7.97;2.75;;;14.60;99.90;;;-144.05;86.60;56946.53;6162895;23;20013;-83
2023/08/02 02:05:54;;;;;;;4.63;2.90;;;14.70;99.90;;;-144.05;86.74;56976.28;6194188;23;20001;-83
2023/08/02 02:08:22;;;;;;;9.98;2.92;;;14.60;99.90;;;-144.05;86.45;56955.03;6162529;23;20453;-84
2023/08/02 02:10:53;;;;;;;4.53;2.90;;;14.60;99.90;;;-144.05;86.21;56989.00;6161718;23;20047;-83
2023/08/02 02:13:23;;;;;;;8.73;3.28;;;14.60;99.90;;;-144.05;86.07;56980.53;6188789;23;20350;-84
2023/08/02 02:15:49;;;;;;;8.40;2.88;;;14.60;99.90;;;-144.05;86.11;56984.78;6161977;23;20008;-84
2023/08/02 02:18:15;;;;;;;9.35;3.28;;;14.70;99.90;;;-144.05;86.10;56961.41;6162593;23;20009;-81
2023/08/02 02:20:41;;;;;;;7.85;3.50;;;14.70;99.90;;;-144.05;86.52;56963.53;6188276;23;20005;-81
2023/08/02 02:23:07;;;;;;;6.25;2.92;;;14.70;99.90;;;-144.05;86.75;56967.78;6161204;23;20032;-83
2023/08/02 02:25:34;;;;;;;5.90;3.58;;;14.70;99.90;;;-144.05;86.78;56984.78;6160598;23;20009;-84
2023/08/02 02:27:59;;;;;;;10.48;3.53;;;14.70;99.90;;;-144.05;86.44;56972.03;6193668;23;20123;-83
2023/08/02 02:30:25;;;;;;;6.90;3.28;;;14.80;99.90;;;-144.05;86.22;56965.66;6170629;23;20004;-84
2023/08/02 02:32:52;;;;;;;13.75;3.88;;;14.80;99.90;;;-144.05;86.20;56995.38;6163368;23;20015;-84
2023/08/02 02:35:18;;;;;;;7.78;3.92;;;14.80;99.90;;;-144.05;86.44;56984.78;6189668;23;20005;-84
2023/08/02 02:37:44;;;;;;;11.18;3.83;;;14.80;99.90;;;-144.05;86.12;56965.66;6161909;23;20351;-85
2023/08/02 02:40:11;;;;;;;5.30;3.40;;;14.80;99.90;;;-144.05;85.71;56995.38;6188413;23;20009;-84
2023/08/02 02:42:42;;;;;;;8.43;3.97;;;14.90;99.90;;;-144.05;85.13;56980.53;6161799;23;20055;-85
2023/08/02 02:45:10;;;;;;;9.85;4.20;;;14.90;99.90;;;-144.05;85.14;56967.78;6187976;23;20229;-83
2023/08/02 02:47:36;;;;;;;7.57;3.65;;;14.90;99.90;;;-144.05;85.31;56961.41;6161650;23;20001;-86
2023/08/02 02:50:03;;;;;;;8.98;4.22;;;14.90;99.90;;;-144.05;85.82;56967.78;6188406;23;20001;-85
2023/08/02 02:52:29;;;;;;;7.07;3.63;;;14.90;99.90;;;-144.05;85.57;56986.91;6188739;23;20059;-85
2023/08/02 02:54:55;;;;;;;9.27;4.18;;;14.90;99.90;;;-144.05;85.24;56993.25;6161951;23;20439;-86
2023/08/02 02:57:21;;;;;;;7.05;3.97;;;15.00;99.90;;;-144.05;84.73;56984.78;6187468;23;20009;-84
2023/08/02 02:59:47;;;;;;;10.30;4.25;;;15.00;99.90;;;-144.05;84.61;56972.03;6160481;23;20059;-84
2023/08/02 03:02:13;;;;;;;7.78;4.07;;;15.00;99.90;;;-144.05;84.54;56986.91;6187946;23;20009;-85
2023/08/02 03:04:38;;;;;;;8.52;4.15;;;15.00;99.90;;;-144.05;84.33;56980.53;6188347;23;20008;-86
2023/08/02 03:07:05;;;;;;;9.15;4.38;;;15.00;99.90;;;-144.05;84.29;56997.50;6160331;23;20009;-83
2023/08/02 03:09:30;;;;;;;11.73;3.75;;;15.00;99.90;;;-144.05;83.94;56986.91;6160257;23;20008;-84
2023/08/02 03:11:56;;;;;;;9.30;4.47;;;15.10;99.90;;;-144.05;83.89;56967.78;6186806;23;20382;-83
2023/08/02 03:14:22;;;;;;;11.52;4.38;;;15.10;99.90;;;-144.05;84.02;56976.28;6186719;23;20016;-85
2023/08/02 03:16:48;;;;;;;9.45;3.97;;;15.10;99.90;;;-144.05;84.23;56984.78;6187408;23;20012;-85
2023/08/02 03:19:14;;;;;;;11.63;3.90;;;15.10;99.90;;;-144.05;83.71;56974.16;6189562;23;20535;-85
2023/08/02 03:21:41;;;;;;;6.35;3.65;;;15.10;99.90;;;-144.05;83.51;56991.13;6161182;23;20473;-86
2023/08/02 03:24:07;;;;;;;8.80;3.38;;;15.10;99.90;;;-144.05;83.25;56963.53;6160587;23;20423;-85
2023/08/02 03:26:33;;;;;;;8.95;3.00;;;15.10;99.90;;;-144.05;83.43;56972.03;6161166;23;20032;-84
2023/08/02 03:28:59;;;;;;;7.40;3.55;;;15.10;99.90;;;-144.05;83.39;57001.75;6185447;23;20052;-83
2023/08/02 03:31:25;;;;;;;7.80;3.67;;;15.10;99.90;;;-144.05;83.22;56980.53;6161088;23;20009;-85
2023/08/02 03:33:51;;;;;;;8.02;3.35;;;15.10;99.90;;;-144.05;83.06;56959.28;6160418;23;20005;-85
2023/08/02 03:36:16;;;;;;;5.60;3.17;;;15.10;99.90;;;-144.05;82.98;56984.78;6160564;23;20009;-85
2023/08/02 03:38:42;;;;;;;10.75;3.40;;;15.20;99.90;;;-144.05;83.51;56984.78;6187624;23;20007;-85
2023/08/02 03:41:09;;;;;;;8.50;3.83;;;15.20;99.90;;;-144.05;83.10;56989.00;6187958;23;20019;-85
2023/08/02 03:43:35;;;;;;;4.85;3.00;;;15.20;99.90;;;-144.05;83.38;56967.78;6188848;23;20016;-85
2023/08/02 03:46:02;;;;;;;8.43;3.63;;;15.20;99.90;;;-144.05;83.42;56991.13;6190534;23;20069;-85
2023/08/02 03:48:28;;;;;;;9.57;3.08;;;15.20;99.90;;;-144.05;83.05;56967.78;6164577;23;20005;-83
2023/08/02 03:50:59;;;;;;;8.50;2.80;;;15.20;99.90;;;-144.05;83.51;56995.38;6187981;23;20304;-84
2023/08/02 03:53:30;;;;;;;8.70;3.90;;;15.20;99.90;;;-144.05;83.25;56980.53;6187443;23;20008;-85
2023/08/02 03:55:56;;;;;;;7.15;2.67;;;15.30;99.90;;;-144.05;83.46;56984.78;6161693;23;20009;-83
2023/08/02 03:58:22;;;;;;;7.90;2.65;;;15.30;99.90;;;-144.05;83.55;56963.53;6187597;23;20059;-84
2023/08/02 04:00:48;;;;;;;7.57;2.80;;;15.30;99.90;;;-144.05;83.07;56980.53;6161942;23;20451;-84
2023/08/02 04:03:14;;;;;;;9.77;2.95;;;15.30;99.90;;;-144.05;83.33;56997.50;6163468;23;20038;-84
2023/08/02 04:05:40;;;;;;;6.38;2.50;;;15.30;99.90;;;-144.05;82.91;56963.53;6187321;23;20009;-86
2023/08/02 04:08:06;;;;;;;9.63;2.80;;;15.30;99.90;;;-144.05;82.65;56991.13;6161952;23;20435;-83
2023/08/02 04:10:39;;;;;;;5.22;2.38;;;15.30;99.90;;;-144.05;82.81;56976.28;6190150;23;20008;-84
2023/08/02 04:13:05;;;;;;;5.88;2.38;;;15.30;99.90;;;-144.05;82.56;56965.66;6189256;23;20005;-83
2023/08/02 04:15:35;;;;;;;7.30;2.35;;;15.30;99.90;;;-144.05;82.64;56993.25;6187595;23;20016;-85
2023/08/02 04:18:02;;;;;;;6.32;2.20;;;15.40;99.90;;;-144.05;82.57;56984.78;6161040;23;20040;-84
2023/08/02 04:20:29;;;;;;;9.65;2.47;;;15.40;99.90;;;-144.05;82.40;56963.53;6187707;23;20032;-85
2023/08/02 04:22:55;;;;;;;5.03;2.05;;;15.40;99.90;;;-144.05;82.27;56963.53;6171689;23;20036;-82
2023/08/02 04:25:21;;;;;;;10.25;2.47;;;15.40;99.90;;;-144.05;82.06;56974.16;6204089;23;20008;-84
2023/08/02 04:27:47;;;;;;;10.30;2.38;;;15.50;99.90;;;-144.05;82.06;56963.53;6177573;23;20015;-84
2023/08/02 04:30:13;;;;;;;5.97;2.40;;;15.50;99.90;;;-144.05;81.89;56963.53;6170096;23;20020;-83
2023/08/02 04:32:39;;;;;;;4.22;2.00;;;15.50;99.90;;;-144.05;81.21;56980.53;6167688;23;20013;-84
2023/08/02 04:35:05;;;;;;;6.60;2.50;;;15.60;99.90;;;-144.05;80.57;56989.00;6159672;23;20454;-83
2023/08/02 04:37:31;;;;;;;8.40;2.50;;;15.60;99.90;;;-144.05;80.67;56984.78;6161401;23;20009;-83
2023/08/02 04:39:57;;;;;;;4.97;2.25;;;15.60;99.90;;;-144.05;80.48;56972.03;6187617;23;20483;-84
2023/08/02 04:42:26;;;;;;;5.07;2.38;;;15.60;99.90;;;-144.05;80.50;56976.28;6161343;23;20005;-84
2023/08/02 04:44:51;;;;;;;6.13;2.45;;;15.60;99.90;;;-144.05;80.35;56972.03;6188989;23;20001;-86
2023/08/02 04:47:17;;;;;;;5.07;2.45;;;15.60;99.90;;;-144.05;80.06;56963.53;6188296;23;20001;-85
2023/08/02 04:49:43;;;;;;;6.80;2.08;;;15.60;99.90;;;-144.05;79.47;56967.78;6187903;23;20001;-84
2023/08/02 04:52:09;;;;;;;6.55;2.00;;;15.70;99.90;;;-144.05;79.17;56993.25;6187816;23;20037;-85
2023/08/02 04:54:35;;;;;;;6.07;2.13;;;15.70;99.90;;;-144.05;79.00;56982.66;6160532;23;20012;-85
2023/08/02 04:57:00;;;;;;;6.50;2.40;;;15.70;99.90;;;-144.05;78.72;56997.50;6187122;23;20013;-85
2023/08/02 04:59:26;;;;;;;6.03;1.92;;;15.70;99.90;;;-144.05;78.43;56967.78;6184570;23;20020;-84
2023/08/02 05:01:52;;;;;;;7.45;2.30;;;15.70;99.90;;;-144.05;78.01;56989.00;6186675;23;20391;-85
2023/08/02 05:04:18;;;;;;;5.32;2.08;;;15.80;99.90;;;-144.05;78.24;56976.28;6185856;23;20001;-83
2023/08/02 05:06:44;;;;;;;8.50;1.80;;;15.80;99.90;;;-144.05;77.75;56976.28;6186436;23;20001;-83
2023/08/02 05:09:11;;;;;;;6.50;2.22;;;15.80;99.90;;;-144.05;77.59;56978.41;6161509;23;20005;-82
2023/08/02 05:11:40;;;;;;;8.10;2.00;;;15.80;99.90;;;-144.05;78.03;56991.13;6186783;23;20025;-83
2023/08/02 05:14:06;;;;;;;6.63;2.10;;;15.80;99.90;;;-144.05;78.25;56984.78;6186330;23;20039;-82
2023/08/02 05:16:31;;;;;;;7.63;2.08;;;15.80;99.90;;;-144.05;78.17;56982.66;6164058;23;20069;-84
2023/08/02 05:18:57;;;;;;;7.22;2.20;;;15.80;99.90;;;-144.05;77.79;56963.53;6191723;23;20009;-85
2023/08/02 05:21:23;;;;;;;3.42;1.80;;;15.80;99.90;;;-144.05;77.72;56982.66;6194346;23;20012;-86
2023/08/02 05:23:50;;;;;;;5.55;2.10;;;15.90;99.90;;;-144.05;77.50;56991.13;6169025;23;20080;-85
2023/08/02 05:26:16;;;;;;;8.52;1.77;;;15.90;99.90;;;-144.05;78.02;56959.28;6168946;23;20001;-85
2023/08/02 05:28:41;;;;;;;8.07;2.25;;;16.00;99.90;;;-144.05;77.34;56982.66;6197710;23;20009;-84
2023/08/02 05:31:13;;;;;;;5.60;2.45;;;16.00;99.90;;;-144.05;77.63;56972.03;6199747;23;20001;-83
2023/08/02 05:33:41;;;;;;;7.57;2.50;;;16.00;99.90;;;-144.05;78.03;56984.78;6164533;23;20060;-84
2023/08/02 05:36:07;;;;;;;6.05;2.22;;;16.10;99.90;;;-144.05;77.19;56984.78;6188642;23;20427;-81
2023/08/02 05:38:38;;;;;;;5.50;2.10;;;16.10;99.90;;;-144.05;77.21;56976.28;6163378;23;20009;-81
2023/08/02 05:41:04;;;;;;;5.78;2.42;;;16.10;99.90;;;-144.05;77.37;56984.78;6162162;23;20015;-82
2023/08/02 05:43:31;;;;;;;7.65;2.58;;;16.10;99.90;;;-144.05;77.44;56972.03;6161841;23;20092;-83
2023/08/02 05:45:57;;;;;;;5.70;1.85;;;16.10;99.90;;;-144.05;77.26;56997.50;6185433;23;20005;-83
2023/08/02 05:48:23;;;;;;;5.53;1.70;;;16.20;99.90;;;-144.05;77.49;56957.16;6159069;23;20008;-81
2023/08/02 05:50:49;;;;;;;4.32;2.10;;;16.20;99.90;;;-144.05;78.12;56980.53;6185986;23;20025;-83
2023/08/02 05:53:15;;;;;;;5.22;2.10;;;16.20;99.90;;;-144.05;77.82;56972.03;6159210;23;20020;-83
2023/08/02 05:55:41;;;;;;;5.80;2.53;;;16.20;99.90;;;-144.05;77.33;56959.28;6158653;23;20020;-81
2023/08/02 05:58:07;;;;;;;6.88;2.30;;;16.20;99.90;;;-144.05;77.95;56965.66;6185596;23;20065;-84
2023/08/02 06:00:33;;;;;;;7.68;2.17;;;16.20;99.90;;;-144.05;77.69;56984.78;6187846;23;20009;-78
2023/08/02 06:02:58;;;;;;;4.25;2.17;;;16.20;99.90;;;-144.05;78.46;56984.78;6186334;23;20013;-83
2023/08/02 06:05:24;;;;;;;4.47;2.33;;;16.20;99.90;;;-144.05;79.00;56991.13;6188536;23;20008;-83
2023/08/02 06:07:51;;;;;;;8.00;2.45;;;16.20;99.90;;;-144.05;78.63;56982.66;6186288;23;20037;-82
2023/08/02 06:10:17;;;;;;;4.93;2.45;;;16.20;99.90;;;-144.05;78.55;56993.25;6160094;23;20005;-83
2023/08/02 06:12:44;;;;;;;7.65;2.42;;;16.20;99.90;;;-144.05;79.19;56974.16;6186574;23;20083;-82
2023/08/02 06:15:10;;;;;;;8.95;2.70;;;16.30;99.90;;;-144.05;78.82;56986.91;6186189;23;20040;-85
2023/08/02 06:17:36;;;;;;;5.72;2.38;;;16.30;99.90;;;-144.05;79.17;56978.41;6186625;23;20024;-81
2023/08/02 06:20:02;;;;;;;5.45;2.50;;;16.30;99.90;;;-144.05;78.69;56982.66;6186196;23;20055;-84
2023/08/02 06:22:29;;;;;;;5.85;2.70;;;16.30;99.90;;;-144.05;78.20;56984.78;6159854;23;20044;-81
2023/08/02 06:24:54;;;;;;;5.95;2.20;;;16.30;99.90;;;-144.05;78.17;56999.63;6186316;23;20380;-83
2023/08/02 06:27:20;;;;;;;4.22;2.63;;;16.40;99.90;;;-144.05;78.45;56976.28;6186736;23;20087;-82
2023/08/02 06:29:46;;;;;;;4.93;2.70;;;16.40;99.90;;;-144.05;78.44;56984.78;6159944;23;20005;-83
2023/08/02 06:32:12;;;;;;;5.60;2.53;;;16.40;99.90;;;-144.05;78.43;56976.28;6185944;23;20005;-82
2023/08/02 06:34:38;;;;;;;6.75;2.30;;;16.40;99.90;;;-144.05;78.96;56997.50;6159444;23;20005;-84
2023/08/02 06:37:04;;;;;;;6.18;2.63;;;16.40;99.90;;;-144.05;80.43;56993.25;6159942;23;20005;-83
2023/08/02 06:39:32;;;;;;;8.18;2.80;;;16.40;99.90;;;-144.05;81.49;56976.28;6185697;23;20009;-83
2023/08/02 06:41:58;;;;;;;5.90;3.03;;;16.40;99.90;;;-144.05;81.17;56993.25;6159415;23;20020;-83
2023/08/02 06:44:24;;;;;;;4.45;2.40;;;16.40;99.90;;;-144.05;81.61;56984.78;6159665;23;20088;-83
2023/08/02 06:46:50;;;;;;;5.75;2.78;;;16.30;99.90;;;-144.05;81.79;56967.78;6186501;23;20024;-84
2023/08/02 06:49:16;;;;;;;6.22;2.75;;;16.30;99.90;;;-144.05;82.88;56972.03;6159602;23;20005;-84
2023/08/02 06:51:42;;;;;;;4.20;2.75;;;16.20;99.90;;;-144.05;83.12;56991.13;6185879;23;20005;-85
2023/08/02 06:54:07;;;;;;;7.07;2.90;;;16.20;99.90;;;-144.05;83.59;56982.66;6186320;23;20006;-84
2023/08/02 06:56:33;;;;;;;4.20;2.85;;;16.20;99.90;;;-144.05;84.42;56972.03;6186556;23;20012;-86
2023/08/02 06:58:59;;;;;;;7.45;3.15;;;16.20;99.90;;;-144.05;84.44;56993.25;6186829;23;20342;-85
2023/08/02 07:01:25;;;;;;;7.45;3.40;;;16.20;99.90;;;-144.05;84.80;56984.78;6160736;23;20092;-85
2023/08/02 07:03:51;;;;;;;5.63;3.08;;;16.20;99.90;;;-144.05;85.45;57006.00;6161164;23;20096;-86
2023/08/02 07:06:20;;;;;;;7.32;3.10;;;16.20;99.90;;;-144.05;85.80;56972.03;6187060;23;20001;-88
2023/08/02 07:08:48;;;;;;;8.48;3.63;;;16.20;99.90;;;-144.05;85.85;56984.78;6161311;23;20009;-89
2023/08/02 07:11:14;;;;;;;6.45;3.33;;;16.20;99.90;;;-144.05;86.12;56986.91;6174758;23;20088;-87
2023/08/02 07:13:45;;;;;;;6.70;3.00;;;16.20;99.90;;;-144.05;86.82;56982.66;6192476;23;20012;-88
2023/08/02 07:16:12;;;;;;;10.73;3.40;;;16.20;99.90;;;-144.05;87.32;56980.53;6162111;23;20009;-87
2023/08/02 07:18:38;;;;;;;7.97;3.85;;;16.20;99.90;;;-144.05;87.63;56965.66;6162156;23;20005;-85
2023/08/02 07:21:07;;;;;;;7.10;3.28;;;16.20;99.90;;;-144.05;87.09;56995.38;6161280;23;20339;-88
2023/08/02 07:23:34;;;;;;;4.15;2.90;;;16.20;99.90;;;-144.05;86.71;56993.25;6186848;23;20012;-89
2023/08/02 07:26:02;;;;;;;7.78;3.00;;;16.30;99.90;;;-144.05;87.36;57010.25;6161744;23;20044;-87
2023/08/02 07:28:27;;;;;;;5.05;3.20;;;16.30;99.90;;;-144.05;87.65;56993.25;6160847;23;20005;-86
2023/08/02 07:31:03;;;;;;;5.28;3.22;;;16.30;99.90;;;-144.05;87.57;56976.28;6161541;23;20316;-85
2023/08/02 07:33:29;;;;;;;6.18;2.83;;;16.40;99.90;;;-144.05;87.65;56982.66;6187841;23;20001;-85
2023/08/02 07:35:55;;;;;;;5.70;3.13;;;16.40;99.90;;;-144.05;87.27;56955.03;6186922;23;20009;-87
2023/08/02 07:38:21;;;;;;;4.32;2.70;;;16.50;99.90;;;-144.05;87.40;56993.25;6186910;23;20009;-86
2023/08/02 07:40:47;;;;;;;5.10;3.20;;;16.50;99.90;;;-144.05;88.17;56980.53;6160468;23;20347;-85
2023/08/02 07:43:13;;;;;;;3.83;2.70;;;16.50;99.90;;;-144.05;87.34;56980.53;6187071;23;20005;-86
2023/08/02 07:45:39;;;;;;;6.80;3.03;;;16.50;99.90;;;-144.05;86.82;56999.63;6160941;23;20048;-86
2023/08/02 07:48:05;;;;;;;4.78;2.83;;;16.50;99.90;;;-144.05;87.10;56976.28;6161339;23;20009;-85
2023/08/02 07:50:31;;;;;;;5.50;2.75;;;16.50;99.90;;;-144.05;86.55;56950.78;6160600;23;20016;-87
2023/08/02 07:52:57;;;;;;;4.35;2.22;;;16.50;99.90;;;-144.05;86.47;56986.91;6161366;23;20011;-88
2023/08/02 07:55:23;;;;;;;4.72;2.42;;;16.60;99.90;;;-144.05;87.20;56965.66;6187827;23;20024;-83
2023/08/02 07:57:49;;;;;;;6.50;2.45;;;16.50;99.90;;;-144.05;87.38;56976.28;6186192;23;20009;-86
2023/08/02 08:00:16;;;;;;;3.97;2.05;;;16.60;99.90;;;-144.05;87.68;56980.53;6186211;23;20319;-85
2023/08/02 08:02:41;;;;;;;6.07;2.58;;;16.60;99.90;;;-144.05;88.02;56989.00;6160210;23;20338;-87
2023/08/02 08:05:08;;;;;;;2.38;1.60;;;16.60;99.90;;;-144.05;88.06;56942.28;6186025;23;20001;-86
2023/08/02 08:07:34;;;;;;;5.95;2.50;;;16.60;99.90;;;-144.05;88.35;56976.28;6159882;23;20443;-89
2023/08/02 08:10:00;;;;;;;3.58;2.15;;;16.60;99.90;;;-144.05;89.06;56991.13;6159550;23;20043;-86
2023/08/02 08:12:26;;;;;;;3.58;2.13;;;16.60;99.90;;;-144.05;87.86;56984.78;6160122;23;20095;-85
2023/08/02 08:14:52;;;;;;;4.25;1.90;;;16.70;99.90;;;-144.05;88.24;56993.25;6160040;23;20020;-88
2023/08/02 08:17:17;;;;;;;3.75;1.67;;;16.80;99.90;;;-144.05;87.22;56989.00;6159961;23;20015;-86
2023/08/02 08:19:44;;;;;;;1.70;1.27;;;16.80;99.90;;;-144.05;87.22;56984.78;6159192;23;20350;-87
2023/08/02 08:22:10;;;;;;;2.88;1.52;;;16.90;99.90;;;-144.05;86.56;56989.00;6185515;23;20009;-85
2023/08/02 08:24:36;;;;;;;3.10;2.00;;;17.00;99.90;;;-144.05;86.71;56969.91;6159380;23;20009;-85
2023/08/02 08:27:02;;;;;;;2.03;1.45;;;17.00;99.90;;;-144.05;86.38;56978.41;6159473;23;20036;-83
2023/08/02 08:29:29;;;;;;;1.95;1.02;;;17.10;99.90;;;-144.05;87.44;56980.53;6159231;23;20447;-86
2023/08/02 08:31:55;;;;;;;1.42;1.00;;;17.00;99.90;;;-144.05;86.95;56989.00;6159191;23;20016;-84
2023/08/02 08:34:21;;;;;;;2.53;1.10;;;17.00;99.90;;;-144.05;85.93;56965.66;6185776;23;20009;-86
2023/08/02 08:36:47;;;;;;;3.22;1.00;;;17.00;99.90;;;-144.05;85.54;56963.53;6159889;23;20350;-85
2023/08/02 08:39:13;;;;;;;1.50;1.00;;;17.10;99.90;;;-144.05;85.14;56980.53;6158867;23;20325;-85
2023/08/02 08:41:39;;;;;;;2.17;1.30;;;17.10;99.90;;;-144.05;85.09;56995.38;6185362;23;20024;-85
2023/08/02 08:44:05;;;;;;;2.45;0.95;;;17.10;99.90;;;-144.05;84.97;56986.91;6159301;23;20008;-85
2023/08/02 08:46:33;;;;;;;3.00;1.20;;;17.20;99.90;;;-144.05;86.23;56955.03;6159585;23;20009;-84
2023/08/02 08:49:03;;;;;;;1.42;1.20;;;17.20;99.90;;;-144.05;85.59;56974.16;6159458;23;20468;-82
2023/08/02 08:51:36;;;;;;;1.67;1.05;;;17.10;99.90;;;-144.05;85.29;56991.13;6162627;23;20548;-83
2023/08/02 08:54:23;;;;;;;1.77;1.10;;;17.10;99.90;;;-144.05;86.40;57003.88;6166352;23;20005;-85
2023/08/02 08:56:49;;;;;;;1.05;0.90;;;17.10;99.90;;;-144.05;86.16;56993.25;6161926;23;20005;-86
2023/08/02 08:59:16;;;;;;;1.73;1.30;;;17.10;99.90;;;-144.05;86.32;56980.53;6161597;23;20088;-87
2023/08/02 09:01:45;;;;;;;2.70;1.20;;;17.10;99.90;;;-144.05;85.86;56982.66;6161674;23;20024;-88
2023/08/02 09:04:11;;;;;;;1.92;1.30;;;17.20;99.90;;;-144.05;85.64;56993.25;6188511;23;20005;-85
2023/08/02 09:06:37;;;;;;;2.70;1.15;;;17.10;99.90;;;-144.05;86.70;57008.13;6161615;23;20468;-86
2023/08/02 09:09:03;;;;;;;2.60;1.50;;;17.10;99.90;;;-144.05;86.60;56986.91;6186850;23;20001;-83
2023/08/02 09:11:29;;;;;;;2.05;1.30;;;17.10;99.90;;;-144.05;87.02;56976.28;6196646;23;20005;-82
2023/08/02 09:14:17;;;;;;;1.67;1.42;;;17.10;99.90;;;-144.05;87.07;56978.41;6151625;23;20025;-84
2023/08/02 09:17:03;;;;;;;1.90;1.30;;;17.20;99.90;;;-144.05;87.15;56993.25;6131259;23;20495;-83
2023/08/02 09:19:33;;;;;;;2.08;1.40;;;17.30;99.90;;;-144.05;88.09;56978.41;6128931;23;20028;-86
2023/08/02 09:22:14;;;;;;;1.90;1.50;;;17.40;99.90;;;-144.05;87.45;56967.78;6130750;23;20003;-83
2023/08/02 09:24:44;;;;;;;3.85;1.23;;;17.50;99.90;;;-144.05;86.22;56980.53;6128336;23;20002;-86
2023/08/02 09:27:20;;;;;;;4.18;1.33;;;17.60;99.90;;;-144.05;85.84;56989.00;6130573;23;20006;-86
2023/08/02 09:29:54;;;;;;;2.45;1.02;;;17.70;99.90;;;-144.05;84.94;56982.66;6128066;23;20032;-83
2023/08/02 09:32:24;;;;;;;1.98;1.00;;;17.90;99.90;;;-144.05;84.08;56993.25;6129695;23;20006;-86
2023/08/02 09:34:58;;;;;;;0.93;0.82;;;18.10;99.90;;;-144.05;83.47;56978.41;6131996;23;20010;-83
2023/08/02 09:37:35;;;;;;;1.77;1.05;;;18.20;99.90;;;-144.05;83.90;56991.13;6129096;23;20017;-83
2023/08/02 09:40:04;;;;;;;1.30;0.93;;;18.40;99.90;;;-144.05;82.17;56982.66;6154418;23;20114;-85
2023/08/02 09:42:30;;;;;;;1.45;0.80;;;18.40;99.90;;;-144.05;83.41;56976.28;6130884;23;20010;-84
2023/08/02 09:45:01;;;;;;;1.50;1.00;;;18.40;99.90;;;-144.05;84.00;57003.88;6130757;23;20024;-85
2023/08/02 09:47:29;;;;;;;0.70;0.70;;;18.40;99.90;;;-144.05;82.42;56980.53;6156598;23;20436;-84
2023/08/02 09:50:11;;;;;;;1.98;1.08;;;18.60;99.90;;;-144.05;83.84;57001.75;6131943;23;20026;-83
2023/08/02 09:52:40;;;;;;;1.20;0.90;;;18.90;99.90;;;-144.05;80.93;56959.28;6131594;23;20001;-83
2023/08/02 09:55:08;;;;;;;1.20;0.60;;;19.30;99.90;;;-144.05;79.23;56986.91;6154840;23;20021;-85
2023/08/02 09:57:34;;;;;;;2.20;0.80;;;19.50;99.90;;;-144.05;77.33;56997.50;6131777;23;20507;-86
2023/08/02 10:00:07;;;;;;;1.33;0.50;;;19.60;99.90;;;-144.05;77.46;57003.88;6155898;23;20519;-81
2023/08/02 10:02:36;;;;;;;0.77;0.63;;;19.60;99.90;;;-144.05;76.92;57006.00;6131717;23;20021;-84
2023/08/02 10:05:12;;;;;;;0.80;0.50;;;19.60;99.90;;;-144.05;77.61;56993.25;6133870;23;20006;-84
2023/08/02 10:07:53;;;;;;;1.80;0.47;;;19.70;99.90;;;-144.05;76.71;56986.91;6133929;23;20010;-83
2023/08/02 10:10:28;;;;;;;0.63;0.43;;;19.80;99.90;;;-144.05;77.73;56997.50;6134099;23;20440;-84